Time;durP1;ratioP1;P1;durP2;ratioP2;P2;SDS_P1;SDS_P2;PMS_P1;PMS_P2;Temp;Humidity;BMP_temperature;BMP_pressure;BME280_temperature;BME280_humidity;BME280_pressure;Samples;Min_cycle;Max_cycle;Signal;HPM_P1;HPM_P2
2021/10/07 00:02:15;;;;;;;7.22;3.03;;;11.40;99.60;;;;;;5044428;28;20021;-75
2021/10/07 00:04:41;;;;;;;6.32;3.72;;;11.40;99.70;;;;;;5032576;28;20021;-75
2021/10/07 00:07:07;;;;;;;7.20;3.92;;;11.40;99.70;;;;;;5044614;28;20024;-74
2021/10/07 00:09:33;;;;;;;8.07;3.85;;;11.40;99.70;;;;;;5052532;28;20057;-75
2021/10/07 00:11:59;;;;;;;5.97;3.53;;;11.40;99.70;;;;;;5041999;28;20513;-75
2021/10/07 00:14:26;;;;;;;7.63;3.72;;;11.40;99.70;;;;;;5040251;28;20117;-75
2021/10/07 00:16:52;;;;;;;6.95;3.10;;;11.30;99.70;;;;;;5030250;28;20544;-75
2021/10/07 00:19:18;;;;;;;6.78;4.05;;;11.30;99.70;;;;;;5032236;28;20037;-75
2021/10/07 00:21:44;;;;;;;6.95;3.53;;;11.30;99.90;;;;;;5040386;28;20117;-75
2021/10/07 00:24:11;;;;;;;5.78;3.83;;;11.30;99.90;;;;;;5052019;28;20029;-75
2021/10/07 00:26:40;;;;;;;6.72;3.53;;;11.30;99.90;;;;;;5046998;28;20458;-75
2021/10/07 00:29:32;;;;;;;5.90;3.40;;;11.20;99.80;;;;;;5039329;28;20033;-74
2021/10/07 00:32:01;;;;;;;5.00;3.10;;;11.30;99.90;;;;;;5045296;28;20125;-75
2021/10/07 00:37:21;;;;;;;7.50;3.63;;;11.20;99.80;;;;;;5033913;28;20029;-75
2021/10/07 00:39:47;;;;;;;5.25;3.22;;;11.20;99.80;;;;;;5051694;28;20025;-75
2021/10/07 00:42:14;;;;;;;6.75;3.58;;;11.20;99.90;;;;;;5027816;28;20026;-75
2021/10/07 00:44:39;;;;;;;5.18;3.17;;;11.20;99.90;;;;;;5040287;28;20051;-74
2021/10/07 00:47:06;;;;;;;8.85;4.20;;;11.10;99.90;;;;;;5045516;28;20115;-75
2021/10/07 00:49:35;;;;;;;5.05;3.22;;;11.10;99.90;;;;;;5042743;28;20502;-75
2021/10/07 00:52:02;;;;;;;5.45;3.42;;;11.10;99.90;;;;;;5019322;28;20056;-75
2021/10/07 00:54:28;;;;;;;5.60;3.20;;;11.10;99.90;;;;;;5031926;28;20079;-74
2021/10/07 00:56:56;;;;;;;8.63;3.70;;;11.10;99.90;;;;;;5051049;28;20548;-74
2021/10/07 00:59:22;;;;;;;7.18;3.63;;;11.10;99.90;;;;;;5043143;28;20077;-74
2021/10/07 01:01:48;;;;;;;7.25;3.42;;;11.00;99.90;;;;;;5040597;28;20079;-75
2021/10/07 01:04:14;;;;;;;7.47;4.43;;;11.00;99.90;;;;;;5048224;28;20458;-75
2021/10/07 01:06:42;;;;;;;6.13;3.33;;;11.10;99.90;;;;;;5032339;28;20030;-74
2021/10/07 01:09:08;;;;;;;8.57;3.97;;;11.00;99.90;;;;;;5035601;28;20033;-74
2021/10/07 01:11:35;;;;;;;6.43;3.58;;;11.00;99.90;;;;;;5050686;28;20062;-74
2021/10/07 01:14:01;;;;;;;6.85;3.80;;;11.00;99.90;;;;;;5045491;28;20020;-75
2021/10/07 01:16:27;;;;;;;8.25;4.10;;;11.00;99.90;;;;;;5042126;28;20059;-74
2021/10/07 01:18:53;;;;;;;6.35;3.70;;;11.00;99.90;;;;;;5044567;28;20040;-74
2021/10/07 01:21:20;;;;;;;7.53;3.92;;;10.90;99.90;;;;;;5034875;28;20490;-75
2021/10/07 01:23:48;;;;;;;8.80;4.63;;;10.90;99.90;;;;;;5032360;28;20030;-75
2021/10/07 01:26:16;;;;;;;6.70;4.00;;;10.90;99.90;;;;;;5033049;28;20071;-75
2021/10/07 01:28:45;;;;;;;7.32;3.75;;;10.80;99.90;;;;;;5051091;28;20239;-75
2021/10/07 01:31:12;;;;;;;6.20;3.63;;;10.80;99.90;;;;;;5046512;28;20029;-75
2021/10/07 01:33:38;;;;;;;6.18;2.95;;;10.90;99.90;;;;;;5044677;28;20385;-75
2021/10/07 01:36:04;;;;;;;6.35;3.60;;;10.80;99.90;;;;;;5036299;28;20083;-75
2021/10/07 01:38:30;;;;;;;6.00;3.20;;;10.90;99.90;;;;;;5048470;28;20032;-75
2021/10/07 01:40:57;;;;;;;6.50;3.35;;;10.90;99.90;;;;;;5047754;28;20040;-75
2021/10/07 01:43:23;;;;;;;6.43;3.47;;;10.80;99.90;;;;;;5041383;28;20041;-74
2021/10/07 01:45:50;;;;;;;5.53;3.22;;;10.90;99.90;;;;;;5036608;28;20033;-75
2021/10/07 01:48:17;;;;;;;8.20;3.22;;;10.80;99.90;;;;;;5045727;28;20025;-75
2021/10/07 01:50:44;;;;;;;6.85;3.35;;;10.80;99.90;;;;;;5042475;28;20391;-75
2021/10/07 01:53:10;;;;;;;5.32;2.90;;;10.80;99.90;;;;;;5041165;28;20061;-74
2021/10/07 01:55:36;;;;;;;4.95;3.47;;;10.80;99.90;;;;;;5040006;28;20036;-75
2021/10/07 01:58:02;;;;;;;3.70;2.88;;;10.80;99.90;;;;;;5030339;28;20030;-75
2021/10/07 02:00:29;;;;;;;8.10;3.50;;;10.80;99.90;;;;;;5045651;28;20128;-74
2021/10/07 02:02:54;;;;;;;7.07;4.05;;;10.80;99.90;;;;;;5048919;28;20096;-74
2021/10/07 02:05:20;;;;;;;6.18;3.25;;;10.80;99.90;;;;;;5042267;28;20546;-75
2021/10/07 02:07:46;;;;;;;4.13;2.90;;;10.80;99.90;;;;;;5037639;28;20391;-75
2021/10/07 02:10:14;;;;;;;6.60;3.35;;;10.80;99.90;;;;;;5045312;28;20383;-74
2021/10/07 02:12:45;;;;;;;6.05;2.85;;;10.80;99.90;;;;;;5031673;28;20032;-75
2021/10/07 02:15:11;;;;;;;5.75;3.47;;;10.80;99.90;;;;;;5030664;28;20029;-74
2021/10/07 02:17:38;;;;;;;5.40;3.13;;;10.70;99.90;;;;;;5030408;28;20422;-75
2021/10/07 02:20:06;;;;;;;5.22;3.42;;;10.60;99.90;;;;;;5030156;28;20037;-75
2021/10/07 02:22:32;;;;;;;4.78;3.10;;;10.60;99.90;;;;;;5038445;28;20416;-75
2021/10/07 02:24:58;;;;;;;5.20;3.28;;;10.60;99.90;;;;;;5039989;28;20029;-75
2021/10/07 02:27:24;;;;;;;4.72;2.70;;;10.60;99.90;;;;;;5029786;28;20498;-75
2021/10/07 02:29:50;;;;;;;4.95;3.08;;;10.60;99.90;;;;;;5030265;28;20083;-75
2021/10/07 02:32:16;;;;;;;7.07;3.20;;;10.60;99.90;;;;;;5035204;28;20118;-75
2021/10/07 02:34:41;;;;;;;5.35;3.15;;;10.60;99.90;;;;;;5050044;28;20032;-75
2021/10/07 02:37:07;;;;;;;5.50;3.35;;;10.60;99.90;;;;;;5045615;28;20026;-75
2021/10/07 02:39:33;;;;;;;4.15;2.75;;;10.60;99.90;;;;;;5041727;28;20493;-75
2021/10/07 02:41:59;;;;;;;4.13;2.90;;;10.60;99.90;;;;;;5029555;28;20017;-75
2021/10/07 02:44:24;;;;;;;5.15;3.20;;;10.60;99.90;;;;;;5045518;28;20376;-74
2021/10/07 02:46:53;;;;;;;5.32;3.13;;;10.50;99.90;;;;;;5034170;28;20025;-75
2021/10/07 02:49:19;;;;;;;4.32;2.90;;;10.50;99.90;;;;;;5048205;28;20025;-76
2021/10/07 02:51:45;;;;;;;4.45;3.00;;;10.50;99.90;;;;;;5053501;28;20049;-74
2021/10/07 02:54:11;;;;;;;5.03;3.35;;;10.50;99.90;;;;;;5052638;28;20591;-74
2021/10/07 02:56:36;;;;;;;4.10;2.97;;;10.50;99.90;;;;;;5045725;28;20051;-74
2021/10/07 02:59:02;;;;;;;4.95;2.90;;;10.50;99.90;;;;;;5045445;28;20120;-74
2021/10/07 03:01:28;;;;;;;5.05;2.72;;;10.40;99.90;;;;;;5044314;28;20033;-74
2021/10/07 03:03:54;;;;;;;3.17;2.38;;;10.40;99.90;;;;;;5033880;28;20026;-74
2021/10/07 03:06:19;;;;;;;3.55;2.90;;;10.40;99.90;;;;;;5040972;28;20028;-74
2021/10/07 03:08:45;;;;;;;4.35;2.95;;;10.40;99.90;;;;;;5044923;28;20044;-76
2021/10/07 03:11:11;;;;;;;4.30;3.13;;;10.40;99.90;;;;;;5039066;28;20033;-73
2021/10/07 03:13:37;;;;;;;5.20;3.03;;;10.40;99.90;;;;;;5040642;28;20025;-75
2021/10/07 03:16:02;;;;;;;4.13;2.90;;;10.40;99.90;;;;;;5041098;28;20040;-75
2021/10/07 03:18:28;;;;;;;3.03;2.40;;;10.40;99.90;;;;;;5050943;28;20070;-75
2021/10/07 03:20:54;;;;;;;3.28;2.60;;;10.40;99.90;;;;;;5033314;28;20078;-75
2021/10/07 03:23:20;;;;;;;6.20;3.72;;;10.40;99.90;;;;;;5038017;28;20021;-75
2021/10/07 03:25:45;;;;;;;5.35;2.75;;;10.30;99.90;;;;;;5044502;28;20025;-74
2021/10/07 03:28:11;;;;;;;5.00;2.80;;;10.30;99.90;;;;;;5043205;28;20022;-75
2021/10/07 03:30:37;;;;;;;5.85;3.30;;;10.30;99.90;;;;;;5043542;28;20033;-75
2021/10/07 03:33:09;;;;;;;5.93;3.83;;;10.30;99.90;;;;;;5048218;28;20033;-75
2021/10/07 03:35:36;;;;;;;3.25;2.70;;;10.30;99.90;;;;;;5034596;28;20129;-75
2021/10/07 03:38:03;;;;;;;5.35;2.92;;;10.20;99.90;;;;;;5036663;28;20064;-76
2021/10/07 03:40:30;;;;;;;5.45;2.90;;;10.20;99.90;;;;;;5049526;28;20029;-77
2021/10/07 03:42:56;;;;;;;5.43;3.17;;;10.20;99.90;;;;;;5036629;28;20025;-76
2021/10/07 03:45:22;;;;;;;5.75;2.90;;;10.20;99.90;;;;;;5043114;28;20029;-76
2021/10/07 03:47:47;;;;;;;3.60;2.72;;;10.20;99.90;;;;;;5047291;28;20413;-77
2021/10/07 03:50:13;;;;;;;6.30;3.10;;;10.20;99.90;;;;;;5038849;28;20495;-76
2021/10/07 03:52:39;;;;;;;4.60;3.00;;;10.20;99.90;;;;;;5033418;28;20177;-76
2021/10/07 03:55:05;;;;;;;4.43;3.15;;;10.20;99.90;;;;;;5054283;28;20033;-77
2021/10/07 03:57:31;;;;;;;3.92;2.80;;;10.20;99.90;;;;;;5052520;28;20086;-76
2021/10/07 03:59:57;;;;;;;3.13;2.63;;;10.20;99.90;;;;;;5053998;28;20032;-77
2021/10/07 04:02:23;;;;;;;6.40;2.78;;;10.20;99.90;;;;;;5046127;28;20104;-76
2021/10/07 04:04:48;;;;;;;5.50;3.05;;;10.10;99.90;;;;;;5042873;28;20092;-75
2021/10/07 04:07:14;;;;;;;6.38;2.88;;;10.10;99.90;;;;;;5049255;28;20021;-75
2021/10/07 04:09:40;;;;;;;6.85;3.53;;;10.10;99.90;;;;;;5033460;28;20479;-74
2021/10/07 04:12:07;;;;;;;6.82;3.22;;;10.10;99.90;;;;;;5036098;28;20078;-75
2021/10/07 04:14:32;;;;;;;7.32;3.55;;;10.10;99.90;;;;;;5049626;28;20531;-75
2021/10/07 04:16:58;;;;;;;7.20;3.42;;;10.10;99.90;;;;;;5043718;28;20040;-75
2021/10/07 04:19:24;;;;;;;9.55;3.45;;;10.10;99.90;;;;;;5042062;28;20056;-76
2021/10/07 04:21:50;;;;;;;6.13;3.15;;;10.10;99.90;;;;;;5025622;28;20471;-76
2021/10/07 04:24:16;;;;;;;5.95;3.05;;;10.10;99.90;;;;;;5043338;28;20025;-76
2021/10/07 04:26:42;;;;;;;6.15;3.28;;;10.10;99.90;;;;;;5023216;28;20036;-76
2021/10/07 04:29:11;;;;;;;7.43;3.13;;;10.10;99.90;;;;;;5032177;28;20034;-76
2021/10/07 04:31:38;;;;;;;5.82;3.20;;;10.00;99.90;;;;;;5048064;28;20478;-75
2021/10/07 04:34:05;;;;;;;8.82;3.30;;;10.00;99.90;;;;;;5034103;28;20047;-76
2021/10/07 04:36:34;;;;;;;5.28;3.20;;;10.00;99.90;;;;;;5041065;28;20075;-76
2021/10/07 04:39:00;;;;;;;6.15;3.20;;;10.00;99.90;;;;;;5041025;28;20109;-76
2021/10/07 04:41:26;;;;;;;6.47;3.30;;;10.00;99.90;;;;;;5029253;28;20033;-76
2021/10/07 04:43:52;;;;;;;6.70;3.30;;;10.00;99.90;;;;;;5042207;28;20402;-76
2021/10/07 04:46:21;;;;;;;5.72;3.65;;;10.00;99.90;;;;;;5041681;28;20382;-75
2021/10/07 04:48:47;;;;;;;7.20;3.15;;;10.00;99.90;;;;;;5031831;28;20080;-76
2021/10/07 04:51:13;;;;;;;5.65;3.83;;;9.90;99.90;;;;;;5046925;28;20399;-75
2021/10/07 04:53:39;;;;;;;6.53;3.78;;;9.90;99.90;;;;;;5043951;28;20040;-76
2021/10/07 04:56:05;;;;;;;7.53;4.45;;;9.90;99.90;;;;;;5041771;28;20487;-76
2021/10/07 04:58:30;;;;;;;8.32;4.03;;;9.90;99.90;;;;;;5049787;28;20025;-76
2021/10/07 05:00:56;;;;;;;6.63;3.55;;;9.80;99.90;;;;;;5031025;28;20079;-75
2021/10/07 05:03:22;;;;;;;7.10;4.00;;;9.80;99.90;;;;;;5037536;28;20379;-77
2021/10/07 05:05:48;;;;;;;6.80;4.10;;;9.80;99.90;;;;;;5053228;28;20379;-76
2021/10/07 05:08:13;;;;;;;10.23;3.80;;;9.80;99.90;;;;;;5052675;28;20166;-77
2021/10/07 05:10:39;;;;;;;8.43;4.10;;;9.80;99.90;;;;;;5026350;28;20045;-76
2021/10/07 05:13:06;;;;;;;7.25;3.70;;;9.80;99.90;;;;;;5040268;28;20515;-77
2021/10/07 05:15:32;;;;;;;7.20;4.32;;;9.80;99.90;;;;;;5033497;28;20032;-76
2021/10/07 05:17:57;;;;;;;8.15;4.18;;;9.80;99.90;;;;;;5031030;28;20037;-76
2021/10/07 05:20:23;;;;;;;6.03;3.70;;;9.80;99.90;;;;;;5037819;28;20098;-76
2021/10/07 05:22:49;;;;;;;8.43;3.65;;;9.80;99.90;;;;;;5032703;28;20025;-76
2021/10/07 05:25:15;;;;;;;6.05;4.25;;;9.70;99.90;;;;;;5051188;28;20029;-76
2021/10/07 05:27:41;;;;;;;6.43;4.05;;;9.70;99.90;;;;;;5022881;28;20624;-76
2021/10/07 05:30:10;;;;;;;6.50;4.43;;;9.70;99.90;;;;;;5029327;28;20056;-75
2021/10/07 05:32:36;;;;;;;6.60;3.58;;;9.70;99.90;;;;;;5048211;28;20033;-76
2021/10/07 05:35:02;;;;;;;8.18;3.92;;;9.70;99.90;;;;;;5030944;28;20490;-75
2021/10/07 05:37:28;;;;;;;7.65;3.80;;;9.70;99.90;;;;;;5021008;28;20025;-76
2021/10/07 05:39:55;;;;;;;6.45;3.72;;;9.70;99.90;;;;;;5051053;28;20032;-76
2021/10/07 05:42:27;;;;;;;7.38;4.38;;;9.70;99.90;;;;;;5031103;28;20111;-77
2021/10/07 05:44:52;;;;;;;8.23;4.55;;;9.70;99.90;;;;;;5038686;28;20105;-76
2021/10/07 05:47:18;;;;;;;6.53;4.57;;;9.60;99.90;;;;;;5041925;28;20108;-76
2021/10/07 05:49:44;;;;;;;10.23;4.95;;;9.60;99.90;;;;;;5039339;28;20391;-76
2021/10/07 05:52:10;;;;;;;11.10;4.78;;;9.60;99.90;;;;;;5029670;28;20057;-76
2021/10/07 05:54:35;;;;;;;9.77;5.10;;;9.70;99.90;;;;;;5046682;28;20025;-76
2021/10/07 05:57:02;;;;;;;8.18;4.88;;;9.70;99.90;;;;;;5050580;28;20363;-77
2021/10/07 05:59:28;;;;;;;9.10;5.32;;;9.70;99.90;;;;;;5047410;28;20029;-76
2021/10/07 06:01:54;;;;;;;10.70;5.18;;;9.70;99.90;;;;;;5021113;28;20024;-77
2021/10/07 06:04:20;;;;;;;12.80;5.28;;;9.70;99.90;;;;;;5023716;28;20112;-76
2021/10/07 06:06:46;;;;;;;11.32;5.35;;;9.70;99.90;;;;;;5038919;28;20112;-77
2021/10/07 06:09:12;;;;;;;8.80;4.95;;;9.80;99.90;;;;;;5030449;28;20025;-77
2021/10/07 06:11:39;;;;;;;8.07;4.63;;;9.80;99.90;;;;;;5046589;28;20547;-76
2021/10/07 06:14:05;;;;;;;10.45;4.90;;;9.80;99.90;;;;;;5046853;28;20033;-76
2021/10/07 06:16:33;;;;;;;8.18;5.43;;;9.80;99.90;;;;;;5036633;28;20031;-77
2021/10/07 06:19:03;;;;;;;9.30;5.15;;;9.80;99.90;;;;;;5034654;28;20116;-77
2021/10/07 06:21:29;;;;;;;7.78;5.25;;;9.80;99.90;;;;;;5039095;28;20025;-77
2021/10/07 06:23:55;;;;;;;10.65;5.07;;;9.90;99.90;;;;;;5043302;28;20029;-76
2021/10/07 06:26:22;;;;;;;11.15;5.65;;;9.90;99.90;;;;;;5050150;28;20070;-76
2021/10/07 06:28:48;;;;;;;8.65;5.18;;;9.90;99.90;;;;;;5036986;28;20034;-76
2021/10/07 06:31:16;;;;;;;7.63;5.20;;;9.90;99.90;;;;;;5039343;28;20025;-74
2021/10/07 06:33:42;;;;;;;9.30;5.90;;;10.00;99.90;;;;;;5040792;28;20026;-76
2021/10/07 06:36:09;;;;;;;10.88;6.25;;;10.00;99.90;;;;;;5038959;28;20479;-76
2021/10/07 06:38:34;;;;;;;10.45;5.90;;;10.00;99.90;;;;;;5047830;28;20263;-76
2021/10/07 06:41:00;;;;;;;6.63;5.45;;;10.00;99.90;;;;;;5030418;28;20026;-76
2021/10/07 06:43:26;;;;;;;7.45;4.90;;;10.10;99.90;;;;;;5021165;28;20033;-76
2021/10/07 06:45:52;;;;;;;9.90;5.20;;;10.10;99.90;;;;;;5041740;28;20075;-76
2021/10/07 06:48:18;;;;;;;9.65;5.10;;;10.20;99.90;;;;;;5043843;28;20037;-76
2021/10/07 06:50:47;;;;;;;10.32;5.13;;;10.20;99.90;;;;;;5038652;28;20020;-75
2021/10/07 06:53:13;;;;;;;9.05;5.13;;;10.20;99.90;;;;;;5039960;28;20025;-76
2021/10/07 06:55:40;;;;;;;11.82;5.10;;;10.20;99.90;;;;;;5039368;28;20422;-76
2021/10/07 06:58:06;;;;;;;9.80;5.35;;;10.20;99.90;;;;;;5030660;28;20018;-76
2021/10/07 07:00:32;;;;;;;14.82;6.30;;;10.30;99.90;;;;;;5027450;28;20377;-76
2021/10/07 07:02:59;;;;;;;9.85;5.70;;;10.30;99.90;;;;;;5040731;28;20025;-75
2021/10/07 07:05:26;;;;;;;9.07;5.43;;;10.30;99.90;;;;;;5039417;28;20104;-76
2021/10/07 07:07:53;;;;;;;9.32;5.53;;;10.40;99.90;;;;;;5041712;28;20378;-76
2021/10/07 07:10:19;;;;;;;13.60;5.78;;;10.40;99.90;;;;;;5032449;28;20112;-76
2021/10/07 07:12:47;;;;;;;8.48;5.50;;;10.40;99.90;;;;;;5049509;28;20140;-76
2021/10/07 07:15:13;;;;;;;7.82;5.20;;;10.40;99.90;;;;;;5040906;28;20116;-76
2021/10/07 07:17:39;;;;;;;10.35;5.88;;;10.40;99.90;;;;;;5049575;28;20052;-75
2021/10/07 07:20:06;;;;;;;10.30;4.93;;;10.50;99.90;;;;;;5047412;28;20457;-76
2021/10/07 07:22:32;;;;;;;12.35;5.18;;;10.50;99.90;;;;;;5040334;28;20123;-76
2021/10/07 07:24:57;;;;;;;7.70;5.05;;;10.60;99.90;;;;;;5040081;28;20486;-76
2021/10/07 07:27:23;;;;;;;8.85;4.82;;;10.60;99.90;;;;;;5043924;28;20065;-76
2021/10/07 07:29:49;;;;;;;9.43;5.53;;;10.60;99.90;;;;;;5033450;28;20083;-76
2021/10/07 07:32:15;;;;;;;8.00;5.22;;;10.70;99.90;;;;;;5046534;28;20041;-76
2021/10/07 07:34:41;;;;;;;12.65;5.28;;;10.70;99.90;;;;;;5035669;28;20119;-76
2021/10/07 07:37:07;;;;;;;10.02;5.85;;;10.80;99.90;;;;;;5045453;28;20039;-76
2021/10/07 07:39:34;;;;;;;8.10;5.00;;;10.80;99.90;;;;;;5042330;28;20029;-76
2021/10/07 07:42:03;;;;;;;8.52;5.18;;;10.80;99.90;;;;;;5043257;28;20471;-76
2021/10/07 07:44:28;;;;;;;7.88;4.88;;;10.80;99.90;;;;;;5041782;28;20056;-75
2021/10/07 07:46:55;;;;;;;8.98;4.22;;;10.80;99.90;;;;;;5047886;28;20475;-76
2021/10/07 07:49:24;;;;;;;10.77;4.65;;;10.90;99.90;;;;;;5053668;28;20106;-76
2021/10/07 07:51:50;;;;;;;7.40;5.30;;;10.90;99.90;;;;;;5033319;28;20025;-77
2021/10/07 07:54:16;;;;;;;6.88;4.10;;;11.00;99.90;;;;;;5046353;28;20064;-77
2021/10/07 07:56:42;;;;;;;11.85;5.10;;;11.00;99.90;;;;;;5044676;28;20110;-76
2021/10/07 07:59:09;;;;;;;8.25;5.13;;;11.00;99.90;;;;;;5049011;28;20041;-77
2021/10/07 08:01:36;;;;;;;10.23;4.78;;;11.10;99.90;;;;;;5034399;28;20242;-77
2021/10/07 08:04:04;;;;;;;11.38;5.10;;;11.10;99.90;;;;;;5051404;28;20418;-77
2021/10/07 08:06:32;;;;;;;9.07;5.05;;;11.10;99.90;;;;;;5055466;28;20029;-77
2021/10/07 08:08:58;;;;;;;10.05;5.30;;;11.20;99.90;;;;;;5048303;28;20076;-76
2021/10/07 08:11:23;;;;;;;13.75;5.22;;;11.20;99.90;;;;;;5048686;28;20403;-74
2021/10/07 08:13:49;;;;;;;10.25;4.18;;;11.30;99.90;;;;;;5042733;28;20037;-76
2021/10/07 08:16:15;;;;;;;13.65;5.47;;;11.40;99.90;;;;;;5042286;28;20068;-76
2021/10/07 08:18:41;;;;;;;8.57;4.65;;;11.40;99.90;;;;;;5045117;28;20398;-76
2021/10/07 08:21:06;;;;;;;6.22;3.50;;;11.40;99.90;;;;;;5032470;28;20033;-76
2021/10/07 08:23:35;;;;;;;10.18;5.00;;;11.50;99.90;;;;;;5040746;28;20083;-76
2021/10/07 08:26:02;;;;;;;8.32;4.97;;;11.50;99.90;;;;;;5046310;28;20108;-76
2021/10/07 08:28:27;;;;;;;12.48;5.03;;;11.60;99.90;;;;;;5043601;28;20483;-76
2021/10/07 08:30:53;;;;;;;14.63;5.03;;;11.50;99.90;;;;;;5039640;28;20034;-76
2021/10/07 08:33:19;;;;;;;11.95;5.60;;;11.60;99.90;;;;;;5031928;28;20030;-76
2021/10/07 08:35:45;;;;;;;13.23;5.47;;;11.60;99.90;;;;;;5048226;28;20040;-76
2021/10/07 08:38:12;;;;;;;9.63;4.93;;;11.70;99.90;;;;;;5023970;28;20395;-76
2021/10/07 08:40:37;;;;;;;8.25;5.00;;;11.70;99.90;;;;;;5041839;28;20020;-76
2021/10/07 08:43:03;;;;;;;11.65;5.97;;;11.80;99.90;;;;;;5038879;28;20502;-76
2021/10/07 08:45:49;;;;;;;10.80;5.13;;;11.80;99.90;;;;;;5049647;28;20036;-76
2021/10/07 08:48:16;;;;;;;11.45;5.07;;;11.90;99.90;;;;;;5031712;28;20083;-76
2021/10/07 08:50:42;;;;;;;9.07;5.07;;;12.00;99.80;;;;;;5040854;28;20107;-76
2021/10/07 08:53:08;;;;;;;11.45;5.38;;;12.00;99.90;;;;;;5051197;28;20092;-77
2021/10/07 08:55:34;;;;;;;7.85;3.90;;;12.10;99.90;;;;;;5043321;28;20025;-77
2021/10/07 08:58:00;;;;;;;8.75;4.13;;;12.10;99.80;;;;;;5044417;28;20502;-76
2021/10/07 09:00:26;;;;;;;6.93;3.78;;;12.20;99.60;;;;;;5042259;28;20056;-77
2021/10/07 09:02:52;;;;;;;9.30;4.20;;;12.20;99.60;;;;;;5013592;28;20064;-76
2021/10/07 09:05:19;;;;;;;10.18;5.10;;;12.30;99.60;;;;;;5031597;28;20495;-77
2021/10/07 09:08:04;;;;;;;9.32;4.85;;;12.30;99.70;;;;;;5049102;28;20079;-75
2021/10/07 09:10:56;;;;;;;8.05;4.15;;;12.40;99.50;;;;;;5051821;28;20059;-77
2021/10/07 09:13:26;;;;;;;8.13;4.25;;;12.40;99.40;;;;;;5043718;28;20029;-77
2021/10/07 09:15:57;;;;;;;5.82;3.63;;;12.50;99.30;;;;;;5041630;28;20053;-76
2021/10/07 09:18:25;;;;;;;13.80;4.40;;;12.60;99.30;;;;;;5049161;28;20285;-77
2021/10/07 09:20:52;;;;;;;7.15;3.90;;;12.60;99.20;;;;;;5033651;28;20087;-77
2021/10/07 09:23:23;;;;;;;9.55;4.25;;;12.70;99.20;;;;;;5043851;28;20025;-76
2021/10/07 09:26:10;;;;;;;8.32;4.43;;;12.80;98.90;;;;;;5053975;28;20024;-77
2021/10/07 09:28:57;;;;;;;5.43;3.47;;;13.00;98.40;;;;;;5047188;28;20478;-77
2021/10/07 09:31:29;;;;;;;6.30;3.33;;;13.30;98.10;;;;;;5042059;28;20028;-74
2021/10/07 09:33:57;;;;;;;7.85;3.42;;;13.40;97.50;;;;;;5053447;28;20491;-77
2021/10/07 09:36:24;;;;;;;9.32;3.40;;;13.60;97.50;;;;;;5043467;28;20025;-78
2021/10/07 09:38:52;;;;;;;6.60;3.38;;;13.80;97.50;;;;;;5047451;28;20036;-78
2021/10/07 09:41:27;;;;;;;5.70;3.65;;;14.00;97.00;;;;;;5078107;23;20053;-74
2021/10/07 09:44:07;;;;;;;10.63;2.90;;;14.40;97.20;;;;;;5057308;28;20106;-75
2021/10/07 09:46:52;;;;;;;5.93;2.80;;;14.80;97.50;;;;;;5044369;28;21240;-75
2021/10/07 09:49:35;;;;;;;8.13;2.83;;;15.60;95.10;;;;;;5067687;28;20107;-74
2021/10/07 09:52:02;;;;;;;6.43;2.42;;;16.40;93.90;;;;;;5050317;28;20021;-75
2021/10/07 09:54:34;;;;;;;6.00;2.47;;;16.90;93.00;;;;;;5050005;28;20025;-75
2021/10/07 09:57:05;;;;;;;8.35;2.15;;;18.00;91.70;;;;;;5033796;28;20082;-75
2021/10/07 09:59:32;;;;;;;7.50;2.35;;;18.80;89.50;;;;;;5050593;28;20033;-75
2021/10/07 10:01:58;;;;;;;6.60;3.05;;;19.90;83.60;;;;;;5041346;28;20033;-75
2021/10/07 10:04:26;;;;;;;3.22;2.08;;;21.30;77.90;;;;;;5039168;28;20428;-75
2021/10/07 10:06:54;;;;;;;4.65;2.33;;;22.90;71.50;;;;;;5028799;28;20025;-74
2021/10/07 10:09:25;;;;;;;4.80;1.75;;;24.30;63.00;;;;;;5030461;28;20044;-75
2021/10/07 10:11:51;;;;;;;5.75;2.50;;;25.50;60.60;;;;;;5040469;28;20619;-75
2021/10/07 10:14:19;;;;;;;3.67;1.70;;;26.40;57.00;;;;;;5047456;28;20044;-75
2021/10/07 10:16:45;;;;;;;4.93;2.00;;;26.50;51.40;;;;;;5022187;28;20302;-75
2021/10/07 10:19:11;;;;;;;3.80;1.83;;;26.50;52.80;;;;;;5042494;28;20030;-75
2021/10/07 10:21:40;;;;;;;5.15;1.77;;;26.40;52.90;;;;;;5040767;28;20432;-75
2021/10/07 10:24:08;;;;;;;3.38;1.90;;;26.20;53.70;;;;;;5050535;28;20079;-74
2021/10/07 10:26:39;;;;;;;7.22;2.60;;;25.70;53.60;;;;;;5034490;28;20055;-75
2021/10/07 10:29:19;;;;;;;4.40;1.70;;;24.90;53.00;;;;;;5036528;28;20033;-74
2021/10/07 10:31:49;;;;;;;7.53;2.40;;;24.20;57.80;;;;;;5034816;28;20021;-75
2021/10/07 10:34:17;;;;;;;4.05;2.13;;;23.60;57.80;;;;;;5040735;28;20060;-74
2021/10/07 10:36:49;;;;;;;3.08;1.80;;;22.90;60.40;;;;;;5043094;28;20083;-74
2021/10/07 10:39:27;;;;;;;3.17;1.40;;;22.30;60.80;;;;;;5044273;28;20036;-74
2021/10/07 10:41:57;;;;;;;2.53;1.27;;;21.90;64.20;;;;;;5034177;28;20025;-74
2021/10/07 10:44:26;;;;;;;1.55;1.35;;;21.40;65.60;;;;;;5041852;28;20370;-75
2021/10/07 10:47:30;;;;;;;2.72;1.20;;;21.10;66.50;;;;;;5049961;28;20115;-75
2021/10/07 10:49:57;;;;;;;1.65;0.93;;;21.30;67.20;;;;;;5039395;28;20025;-75
2021/10/07 10:52:53;;;;;;;2.75;1.30;;;22.60;65.10;;;;;;5041692;28;20111;-75
2021/10/07 10:55:34;;;;;;;2.75;0.95;;;25.20;55.10;;;;;;5038463;28;20039;-75
2021/10/07 10:58:05;;;;;;;2.28;1.40;;;27.90;49.30;;;;;;5032666;28;20037;-75
2021/10/07 11:00:33;;;;;;;2.05;0.88;;;29.80;45.70;;;;;;5033627;28;20065;-75
2021/10/07 11:03:09;;;;;;;4.30;1.20;;;30.80;42.70;;;;;;5033923;28;20064;-75
2021/10/07 11:06:01;;;;;;;2.28;1.10;;;31.00;41.00;;;;;;5034337;28;20457;-75
2021/10/07 11:08:27;;;;;;;3.00;1.23;;;30.60;39.80;;;;;;5048157;28;20026;-75
2021/10/07 11:10:58;;;;;;;3.38;1.52;;;30.20;40.40;;;;;;5033497;28;20029;-74
2021/10/07 11:13:26;;;;;;;2.40;1.33;;;29.30;40.20;;;;;;5053435;28;20017;-75
2021/10/07 11:15:57;;;;;;;1.95;1.08;;;28.80;41.00;;;;;;5045825;28;20028;-75
2021/10/07 11:18:26;;;;;;;2.10;1.15;;;28.80;42.20;;;;;;5038716;28;20424;-74
2021/10/07 11:21:00;;;;;;;2.15;1.10;;;28.60;42.10;;;;;;5053991;28;20385;-75
2021/10/07 11:23:28;;;;;;;2.85;1.20;;;27.80;43.70;;;;;;5045675;28;20444;-75
2021/10/07 11:25:57;;;;;;;2.40;1.20;;;26.70;45.50;;;;;;5040793;28;20391;-74
2021/10/07 11:28:34;;;;;;;2.00;1.38;;;25.80;46.70;;;;;;5042005;28;20100;-75
2021/10/07 11:31:11;;;;;;;2.92;1.35;;;24.60;48.40;;;;;;5029365;28;20382;-75
2021/10/07 11:33:52;;;;;;;2.28;1.13;;;23.50;51.40;;;;;;5035425;28;20051;-74
2021/10/07 11:36:24;;;;;;;231.25;136.85;;;22.30;54.70;;;;;;5037925;28;20435;-74
2021/10/07 11:38:52;;;;;;;142.88;101.32;;;21.50;56.80;;;;;;5040933;28;20029;-74
2021/10/07 11:41:20;;;;;;;10.25;6.55;;;20.90;59.00;;;;;;5041366;28;20044;-74
2021/10/07 11:43:48;;;;;;;5.55;2.10;;;20.30;60.20;;;;;;5042054;28;20036;-74
2021/10/07 11:46:16;;;;;;;2.88;1.30;;;20.00;62.10;;;;;;5045756;28;20390;-74
2021/10/07 11:48:49;;;;;;;3.17;1.48;;;19.80;63.80;;;;;;5033460;28;20137;-74
2021/10/07 11:51:24;;;;;;;3.65;1.85;;;19.50;66.00;;;;;;5046133;28;20046;-74
2021/10/07 11:53:52;;;;;;;3.78;1.75;;;19.00;67.10;;;;;;5032595;28;20037;-75
2021/10/07 11:56:28;;;;;;;3.63;2.03;;;18.70;68.40;;;;;;5044379;28;20063;-74
2021/10/07 11:59:03;;;;;;;5.82;2.03;;;18.40;70.40;;;;;;5047587;28;20057;-74
2021/10/07 12:01:31;;;;;;;2.55;1.55;;;18.20;73.20;;;;;;5042581;28;20394;-74
2021/10/07 12:03:59;;;;;;;4.72;1.67;;;18.00;73.00;;;;;;5032641;28;20375;-74
2021/10/07 12:06:26;;;;;;;2.97;1.52;;;17.80;74.00;;;;;;5047802;28;20028;-74
2021/10/07 12:08:52;;;;;;;5.45;1.88;;;17.60;76.60;;;;;;5051272;28;20025;-74
2021/10/07 12:11:20;;;;;;;3.90;1.90;;;17.50;77.80;;;;;;5042621;28;20045;-72
2021/10/07 12:13:48;;;;;;;5.13;2.40;;;17.40;78.70;;;;;;5044217;28;20032;-75
2021/10/07 12:16:17;;;;;;;2.25;1.58;;;17.40;79.90;;;;;;5057403;28;20061;-74
2021/10/07 12:18:50;;;;;;;4.43;1.70;;;17.30;80.40;;;;;;5052814;28;20073;-74
2021/10/07 12:21:33;;;;;;;2.65;1.60;;;17.10;81.00;;;;;;5032547;28;20068;-74
2021/10/07 12:24:00;;;;;;;4.63;2.10;;;17.10;81.10;;;;;;5030694;28;20433;-75
2021/10/07 12:26:31;;;;;;;3.33;1.67;;;17.00;80.80;;;;;;5047300;28;20495;-74
2021/10/07 12:29:01;;;;;;;6.78;2.42;;;16.90;81.40;;;;;;5038592;28;20038;-74
2021/10/07 12:31:30;;;;;;;3.28;2.33;;;16.90;83.10;;;;;;5023031;28;20021;-75
2021/10/07 12:34:04;;;;;;;5.18;2.00;;;16.70;83.30;;;;;;5045395;28;20040;-74
2021/10/07 12:36:59;;;;;;;3.42;1.67;;;16.70;84.00;;;;;;5014155;28;20074;-74
2021/10/07 12:39:42;;;;;;;3.13;2.03;;;16.80;84.10;;;;;;5045213;28;20037;-74
2021/10/07 12:42:13;;;;;;;4.38;2.20;;;16.80;84.10;;;;;;5037031;28;20444;-74
2021/10/07 12:44:44;;;;;;;4.18;1.90;;;16.80;84.60;;;;;;5026691;28;20035;-74
2021/10/07 12:47:15;;;;;;;2.80;1.80;;;16.80;84.40;;;;;;5041252;28;20021;-74
2021/10/07 12:49:47;;;;;;;2.38;1.63;;;16.80;84.50;;;;;;5034482;28;20509;-74
2021/10/07 12:52:19;;;;;;;4.88;2.00;;;16.80;84.80;;;;;;5051272;28;20033;-74
2021/10/07 12:54:59;;;;;;;3.42;1.98;;;16.70;85.30;;;;;;5051754;28;20056;-74